sensor_id;sensor_type;location;lat;lon;timestamp;P1;durP1;ratioP1;P2;durP2;ratioP2
36597;SDS011;22607;49.550;11.940;2024-02-21T00:01:58;11.88;;;2.58;;
36597;SDS011;22607;49.550;11.940;2024-02-21T00:04:27;10.73;;;2.95;;
36597;SDS011;22607;49.550;11.940;2024-02-21T00:06:57;15.30;;;3.80;;
36597;SDS011;22607;49.550;11.940;2024-02-21T00:09:24;11.35;;;2.80;;
36597;SDS011;22607;49.550;11.940;2024-02-21T00:11:52;11.20;;;2.88;;
36597;SDS011;22607;49.550;11.940;2024-02-21T00:14:24;13.55;;;3.58;;
36597;SDS011;22607;49.550;11.940;2024-02-21T00:16:50;12.52;;;3.28;;
36597;SDS011;22607;49.550;11.940;2024-02-21T00:19:18;14.25;;;3.90;;
36597;SDS011;22607;49.550;11.940;2024-02-21T00:21:45;13.40;;;2.80;;
36597;SDS011;22607;49.550;11.940;2024-02-21T00:24:12;11.30;;;2.70;;
36597;SDS011;22607;49.550;11.940;2024-02-21T00:26:39;12.90;;;3.60;;
36597;SDS011;22607;49.550;11.940;2024-02-21T00:29:05;11.20;;;2.85;;
36597;SDS011;22607;49.550;11.940;2024-02-21T00:31:34;15.30;;;3.25;;
36597;SDS011;22607;49.550;11.940;2024-02-21T00:34:01;12.95;;;2.60;;
36597;SDS011;22607;49.550;11.940;2024-02-21T00:36:28;14.57;;;2.92;;
36597;SDS011;22607;49.550;11.940;2024-02-21T00:38:55;11.85;;;2.88;;
36597;SDS011;22607;49.550;11.940;2024-02-21T00:41:22;10.55;;;2.50;;
36597;SDS011;22607;49.550;11.940;2024-02-21T00:43:49;11.35;;;3.08;;
36597;SDS011;22607;49.550;11.940;2024-02-21T00:46:17;11.05;;;2.50;;
36597;SDS011;22607;49.550;11.940;2024-02-21T00:48:43;10.73;;;2.63;;
36597;SDS011;22607;49.550;11.940;2024-02-21T00:51:10;11.40;;;2.92;;
36597;SDS011;22607;49.550;11.940;2024-02-21T00:53:37;13.60;;;3.30;;
36597;SDS011;22607;49.550;11.940;2024-02-21T00:56:05;11.95;;;2.85;;
36597;SDS011;22607;49.550;11.940;2024-02-21T00:58:32;12.27;;;3.25;;
36597;SDS011;22607;49.550;11.940;2024-02-21T01:01:02;16.20;;;3.85;;
36597;SDS011;22607;49.550;11.940;2024-02-21T01:03:29;14.23;;;3.47;;
36597;SDS011;22607;49.550;11.940;2024-02-21T01:05:57;10.95;;;2.60;;
36597;SDS011;22607;49.550;11.940;2024-02-21T01:08:24;15.63;;;3.33;;
36597;SDS011;22607;49.550;11.940;2024-02-21T01:10:52;12.40;;;3.30;;
36597;SDS011;22607;49.550;11.940;2024-02-21T01:13:23;11.65;;;3.30;;
36597;SDS011;22607;49.550;11.940;2024-02-21T01:15:51;12.30;;;2.95;;
36597;SDS011;22607;49.550;11.940;2024-02-21T01:18:20;9.52;;;2.65;;
36597;SDS011;22607;49.550;11.940;2024-02-21T01:20:47;11.68;;;3.33;;
36597;SDS011;22607;49.550;11.940;2024-02-21T01:23:17;10.48;;;2.63;;
36597;SDS011;22607;49.550;11.940;2024-02-21T01:25:44;12.77;;;3.83;;
36597;SDS011;22607;49.550;11.940;2024-02-21T01:28:11;17.20;;;3.50;;
36597;SDS011;22607;49.550;11.940;2024-02-21T01:30:38;11.68;;;3.03;;
36597;SDS011;22607;49.550;11.940;2024-02-21T01:33:04;11.40;;;2.88;;
36597;SDS011;22607;49.550;11.940;2024-02-21T01:35:40;15.07;;;3.60;;
36597;SDS011;22607;49.550;11.940;2024-02-21T01:38:12;10.38;;;3.33;;
36597;SDS011;22607;49.550;11.940;2024-02-21T01:40:39;12.52;;;3.75;;
36597;SDS011;22607;49.550;11.940;2024-02-21T01:43:15;11.98;;;3.35;;
36597;SDS011;22607;49.550;11.940;2024-02-21T01:45:44;12.68;;;3.42;;
36597;SDS011;22607;49.550;11.940;2024-02-21T01:48:14;11.73;;;3.20;;
36597;SDS011;22607;49.550;11.940;2024-02-21T01:50:45;14.15;;;4.03;;
36597;SDS011;22607;49.550;11.940;2024-02-21T01:53:13;12.32;;;3.50;;
36597;SDS011;22607;49.550;11.940;2024-02-21T01:55:51;15.85;;;3.72;;
36597;SDS011;22607;49.550;11.940;2024-02-21T01:58:19;10.95;;;3.28;;
36597;SDS011;22607;49.550;11.940;2024-02-21T02:00:47;14.95;;;3.90;;
36597;SDS011;22607;49.550;11.940;2024-02-21T02:03:16;10.73;;;3.40;;
36597;SDS011;22607;49.550;11.940;2024-02-21T02:05:47;16.33;;;3.40;;
36597;SDS011;22607;49.550;11.940;2024-02-21T02:08:17;15.15;;;3.92;;
36597;SDS011;22607;49.550;11.940;2024-02-21T02:10:45;10.80;;;3.00;;
36597;SDS011;22607;49.550;11.940;2024-02-21T02:13:12;12.18;;;3.28;;
36597;SDS011;22607;49.550;11.940;2024-02-21T02:15:43;13.52;;;3.40;;
36597;SDS011;22607;49.550;11.940;2024-02-21T02:18:14;12.02;;;3.08;;
36597;SDS011;22607;49.550;11.940;2024-02-21T02:20:42;13.50;;;3.90;;
36597;SDS011;22607;49.550;11.940;2024-02-21T02:25:52;18.35;;;3.97;;
36597;SDS011;22607;49.550;11.940;2024-02-21T02:28:20;13.13;;;3.20;;
36597;SDS011;22607;49.550;11.940;2024-02-21T02:30:48;12.65;;;3.40;;
36597;SDS011;22607;49.550;11.940;2024-02-21T02:33:15;9.75;;;2.70;;
36597;SDS011;22607;49.550;11.940;2024-02-21T02:35:44;14.15;;;3.25;;
36597;SDS011;22607;49.550;11.940;2024-02-21T02:38:12;11.65;;;2.83;;
36597;SDS011;22607;49.550;11.940;2024-02-21T02:40:40;12.20;;;3.50;;
36597;SDS011;22607;49.550;11.940;2024-02-21T02:43:08;15.13;;;3.30;;
36597;SDS011;22607;49.550;11.940;2024-02-21T02:45:37;13.38;;;3.72;;
36597;SDS011;22607;49.550;11.940;2024-02-21T02:48:05;12.50;;;3.58;;
36597;SDS011;22607;49.550;11.940;2024-02-21T02:50:32;10.40;;;3.10;;
36597;SDS011;22607;49.550;11.940;2024-02-21T02:52:58;8.65;;;2.78;;
36597;SDS011;22607;49.550;11.940;2024-02-21T02:55:29;12.02;;;3.60;;
36597;SDS011;22607;49.550;11.940;2024-02-21T02:57:57;13.85;;;3.38;;
36597;SDS011;22607;49.550;11.940;2024-02-21T03:00:24;13.95;;;3.42;;
36597;SDS011;22607;49.550;11.940;2024-02-21T03:02:51;10.70;;;3.25;;
36597;SDS011;22607;49.550;11.940;2024-02-21T03:05:20;9.93;;;3.15;;
36597;SDS011;22607;49.550;11.940;2024-02-21T03:07:48;13.50;;;3.47;;
36597;SDS011;22607;49.550;11.940;2024-02-21T03:10:16;14.98;;;3.72;;
36597;SDS011;22607;49.550;11.940;2024-02-21T03:12:45;10.95;;;3.35;;
36597;SDS011;22607;49.550;11.940;2024-02-21T03:15:13;12.10;;;3.60;;
36597;SDS011;22607;49.550;11.940;2024-02-21T03:17:41;13.68;;;3.38;;
36597;SDS011;22607;49.550;11.940;2024-02-21T03:20:11;11.13;;;3.10;;
36597;SDS011;22607;49.550;11.940;2024-02-21T03:22:40;13.05;;;3.03;;
36597;SDS011;22607;49.550;11.940;2024-02-21T03:25:08;10.48;;;3.10;;
36597;SDS011;22607;49.550;11.940;2024-02-21T03:27:36;13.98;;;4.03;;
36597;SDS011;22607;49.550;11.940;2024-02-21T03:30:03;12.50;;;3.28;;
36597;SDS011;22607;49.550;11.940;2024-02-21T03:32:33;13.63;;;3.80;;
36597;SDS011;22607;49.550;11.940;2024-02-21T03:35:01;11.75;;;3.65;;
36597;SDS011;22607;49.550;11.940;2024-02-21T03:37:28;10.93;;;3.80;;
36597;SDS011;22607;49.550;11.940;2024-02-21T03:39:55;13.13;;;3.55;;
36597;SDS011;22607;49.550;11.940;2024-02-21T03:42:23;9.93;;;2.95;;
36597;SDS011;22607;49.550;11.940;2024-02-21T03:44:50;13.15;;;4.15;;
36597;SDS011;22607;49.550;11.940;2024-02-21T03:47:19;10.65;;;3.10;;
36597;SDS011;22607;49.550;11.940;2024-02-21T03:49:49;11.95;;;3.35;;
36597;SDS011;22607;49.550;11.940;2024-02-21T03:54:50;18.35;;;3.72;;
36597;SDS011;22607;49.550;11.940;2024-02-21T03:57:17;13.00;;;3.22;;
36597;SDS011;22607;49.550;11.940;2024-02-21T03:59:51;11.48;;;2.90;;
36597;SDS011;22607;49.550;11.940;2024-02-21T04:02:19;14.30;;;3.60;;
36597;SDS011;22607;49.550;11.940;2024-02-21T04:04:46;12.48;;;3.72;;
36597;SDS011;22607;49.550;11.940;2024-02-21T04:07:14;9.95;;;2.92;;
36597;SDS011;22607;49.550;11.940;2024-02-21T04:09:42;14.50;;;4.05;;
36597;SDS011;22607;49.550;11.940;2024-02-21T04:12:09;13.05;;;3.33;;
36597;SDS011;22607;49.550;11.940;2024-02-21T04:14:36;12.82;;;3.28;;
36597;SDS011;22607;49.550;11.940;2024-02-21T04:17:03;14.82;;;3.72;;
36597;SDS011;22607;49.550;11.940;2024-02-21T04:19:32;12.75;;;3.40;;
36597;SDS011;22607;49.550;11.940;2024-02-21T04:22:00;12.13;;;2.92;;
36597;SDS011;22607;49.550;11.940;2024-02-21T04:24:29;10.07;;;2.70;;
36597;SDS011;22607;49.550;11.940;2024-02-21T04:26:56;11.27;;;3.20;;
36597;SDS011;22607;49.550;11.940;2024-02-21T04:29:24;12.77;;;3.20;;
36597;SDS011;22607;49.550;11.940;2024-02-21T04:31:51;13.55;;;4.10;;
36597;SDS011;22607;49.550;11.940;2024-02-21T04:34:18;11.30;;;2.97;;
36597;SDS011;22607;49.550;11.940;2024-02-21T04:36:45;10.57;;;2.88;;
36597;SDS011;22607;49.550;11.940;2024-02-21T04:39:12;15.35;;;4.43;;
36597;SDS011;22607;49.550;11.940;2024-02-21T04:41:39;12.07;;;3.13;;
36597;SDS011;22607;49.550;11.940;2024-02-21T04:44:05;12.38;;;3.05;;
36597;SDS011;22607;49.550;11.940;2024-02-21T04:46:32;12.57;;;3.17;;
36597;SDS011;22607;49.550;11.940;2024-02-21T04:48:59;14.52;;;3.72;;
36597;SDS011;22607;49.550;11.940;2024-02-21T04:51:26;11.43;;;3.35;;
36597;SDS011;22607;49.550;11.940;2024-02-21T04:53:53;17.63;;;4.28;;
36597;SDS011;22607;49.550;11.940;2024-02-21T04:56:23;14.55;;;3.63;;
36597;SDS011;22607;49.550;11.940;2024-02-21T04:58:52;12.65;;;3.53;;
36597;SDS011;22607;49.550;11.940;2024-02-21T05:01:19;17.17;;;3.28;;
36597;SDS011;22607;49.550;11.940;2024-02-21T05:03:46;12.68;;;4.03;;
36597;SDS011;22607;49.550;11.940;2024-02-21T05:06:13;12.68;;;3.78;;
36597;SDS011;22607;49.550;11.940;2024-02-21T05:08:40;11.90;;;3.55;;
36597;SDS011;22607;49.550;11.940;2024-02-21T05:11:07;11.95;;;3.20;;
36597;SDS011;22607;49.550;11.940;2024-02-21T05:13:39;11.35;;;4.18;;
36597;SDS011;22607;49.550;11.940;2024-02-21T05:16:06;13.18;;;3.55;;
36597;SDS011;22607;49.550;11.940;2024-02-21T05:18:36;13.23;;;3.70;;
36597;SDS011;22607;49.550;11.940;2024-02-21T05:21:03;14.45;;;3.15;;
36597;SDS011;22607;49.550;11.940;2024-02-21T05:23:30;11.98;;;3.08;;
36597;SDS011;22607;49.550;11.940;2024-02-21T05:25:57;11.60;;;3.25;;
36597;SDS011;22607;49.550;11.940;2024-02-21T05:28:24;9.73;;;3.03;;
36597;SDS011;22607;49.550;11.940;2024-02-21T05:30:53;11.77;;;3.42;;
36597;SDS011;22607;49.550;11.940;2024-02-21T05:33:20;13.98;;;3.22;;
36597;SDS011;22607;49.550;11.940;2024-02-21T05:35:50;11.13;;;2.72;;
36597;SDS011;22607;49.550;11.940;2024-02-21T05:38:18;12.43;;;3.35;;
36597;SDS011;22607;49.550;11.940;2024-02-21T05:40:47;10.48;;;2.72;;
36597;SDS011;22607;49.550;11.940;2024-02-21T05:43:15;11.35;;;3.33;;
36597;SDS011;22607;49.550;11.940;2024-02-21T05:45:42;12.82;;;3.17;;
36597;SDS011;22607;49.550;11.940;2024-02-21T05:48:09;12.60;;;2.92;;
36597;SDS011;22607;49.550;11.940;2024-02-21T05:50:38;13.50;;;3.28;;
36597;SDS011;22607;49.550;11.940;2024-02-21T05:53:05;10.52;;;3.22;;
36597;SDS011;22607;49.550;11.940;2024-02-21T05:55:35;11.25;;;3.10;;
36597;SDS011;22607;49.550;11.940;2024-02-21T05:58:02;10.15;;;2.78;;
36597;SDS011;22607;49.550;11.940;2024-02-21T06:00:34;11.73;;;3.53;;
36597;SDS011;22607;49.550;11.940;2024-02-21T06:03:02;12.07;;;2.58;;
36597;SDS011;22607;49.550;11.940;2024-02-21T06:05:37;14.13;;;3.30;;
36597;SDS011;22607;49.550;11.940;2024-02-21T06:08:05;11.45;;;3.42;;
36597;SDS011;22607;49.550;11.940;2024-02-21T06:10:32;14.98;;;4.10;;
36597;SDS011;22607;49.550;11.940;2024-02-21T06:13:00;11.93;;;3.22;;
36597;SDS011;22607;49.550;11.940;2024-02-21T06:15:28;15.32;;;4.03;;
36597;SDS011;22607;49.550;11.940;2024-02-21T06:17:54;11.10;;;3.50;;
36597;SDS011;22607;49.550;11.940;2024-02-21T06:20:24;12.43;;;3.85;;
36597;SDS011;22607;49.550;11.940;2024-02-21T06:22:53;14.15;;;3.00;;
36597;SDS011;22607;49.550;11.940;2024-02-21T06:25:21;10.43;;;3.15;;
36597;SDS011;22607;49.550;11.940;2024-02-21T06:27:50;9.95;;;2.70;;
36597;SDS011;22607;49.550;11.940;2024-02-21T06:30:17;9.23;;;2.60;;
36597;SDS011;22607;49.550;11.940;2024-02-21T06:32:44;12.23;;;3.03;;
36597;SDS011;22607;49.550;11.940;2024-02-21T06:35:13;14.48;;;3.72;;
36597;SDS011;22607;49.550;11.940;2024-02-21T06:37:40;10.48;;;2.47;;
36597;SDS011;22607;49.550;11.940;2024-02-21T06:40:08;11.57;;;3.45;;
36597;SDS011;22607;49.550;11.940;2024-02-21T06:42:37;12.93;;;2.40;;
36597;SDS011;22607;49.550;11.940;2024-02-21T06:45:04;12.57;;;3.30;;
36597;SDS011;22607;49.550;11.940;2024-02-21T06:47:31;11.70;;;3.00;;
36597;SDS011;22607;49.550;11.940;2024-02-21T06:49:58;13.10;;;2.70;;
36597;SDS011;22607;49.550;11.940;2024-02-21T06:52:27;14.85;;;3.45;;
36597;SDS011;22607;49.550;11.940;2024-02-21T06:54:58;10.87;;;2.93;;
36597;SDS011;22607;49.550;11.940;2024-02-21T06:57:26;13.77;;;3.40;;
36597;SDS011;22607;49.550;11.940;2024-02-21T06:59:52;10.85;;;3.28;;
36597;SDS011;22607;49.550;11.940;2024-02-21T07:02:21;10.93;;;3.58;;
36597;SDS011;22607;49.550;11.940;2024-02-21T07:04:48;9.65;;;3.08;;
36597;SDS011;22607;49.550;11.940;2024-02-21T07:07:16;8.57;;;2.67;;
36597;SDS011;22607;49.550;11.940;2024-02-21T07:09:42;11.13;;;2.70;;
36597;SDS011;22607;49.550;11.940;2024-02-21T07:12:09;10.85;;;2.92;;
36597;SDS011;22607;49.550;11.940;2024-02-21T07:14:36;14.40;;;3.78;;
36597;SDS011;22607;49.550;11.940;2024-02-21T07:17:06;9.20;;;2.50;;
36597;SDS011;22607;49.550;11.940;2024-02-21T07:19:36;13.65;;;3.72;;
36597;SDS011;22607;49.550;11.940;2024-02-21T07:22:12;10.10;;;3.00;;
36597;SDS011;22607;49.550;11.940;2024-02-21T07:24:42;11.15;;;2.20;;
36597;SDS011;22607;49.550;11.940;2024-02-21T07:27:13;13.10;;;3.20;;
36597;SDS011;22607;49.550;11.940;2024-02-21T07:29:41;11.63;;;2.90;;
36597;SDS011;22607;49.550;11.940;2024-02-21T07:32:12;12.52;;;3.05;;
36597;SDS011;22607;49.550;11.940;2024-02-21T07:34:40;11.40;;;2.45;;
36597;SDS011;22607;49.550;11.940;2024-02-21T07:37:12;10.43;;;3.13;;
36597;SDS011;22607;49.550;11.940;2024-02-21T07:39:39;14.13;;;3.10;;
36597;SDS011;22607;49.550;11.940;2024-02-21T07:42:10;10.60;;;2.90;;
36597;SDS011;22607;49.550;11.940;2024-02-21T07:44:37;11.07;;;2.78;;
36597;SDS011;22607;49.550;11.940;2024-02-21T07:47:03;10.90;;;3.00;;
36597;SDS011;22607;49.550;11.940;2024-02-21T07:49:30;10.15;;;3.03;;
36597;SDS011;22607;49.550;11.940;2024-02-21T07:52:00;12.15;;;2.63;;
36597;SDS011;22607;49.550;11.940;2024-02-21T07:54:30;16.60;;;3.30;;
36597;SDS011;22607;49.550;11.940;2024-02-21T07:56:56;10.73;;;4.03;;
36597;SDS011;22607;49.550;11.940;2024-02-21T07:59:27;13.70;;;3.85;;
36597;SDS011;22607;49.550;11.940;2024-02-21T08:01:57;10.52;;;3.55;;
36597;SDS011;22607;49.550;11.940;2024-02-21T08:04:30;13.40;;;3.40;;
36597;SDS011;22607;49.550;11.940;2024-02-21T08:06:56;12.20;;;3.15;;
36597;SDS011;22607;49.550;11.940;2024-02-21T08:09:25;10.13;;;2.97;;
36597;SDS011;22607;49.550;11.940;2024-02-21T08:11:53;12.27;;;2.95;;
36597;SDS011;22607;49.550;11.940;2024-02-21T08:14:24;13.07;;;3.05;;
36597;SDS011;22607;49.550;11.940;2024-02-21T08:16:56;10.52;;;3.30;;
36597;SDS011;22607;49.550;11.940;2024-02-21T08:19:23;11.73;;;3.13;;
36597;SDS011;22607;49.550;11.940;2024-02-21T08:21:52;13.73;;;3.22;;
36597;SDS011;22607;49.550;11.940;2024-02-21T08:24:18;12.55;;;3.42;;
36597;SDS011;22607;49.550;11.940;2024-02-21T08:26:48;10.05;;;3.20;;
36597;SDS011;22607;49.550;11.940;2024-02-21T08:29:14;10.23;;;2.83;;
36597;SDS011;22607;49.550;11.940;2024-02-21T08:31:41;13.77;;;3.20;;
36597;SDS011;22607;49.550;11.940;2024-02-21T08:34:11;10.88;;;2.75;;
36597;SDS011;22607;49.550;11.940;2024-02-21T08:36:40;11.45;;;2.97;;
36597;SDS011;22607;49.550;11.940;2024-02-21T08:39:08;11.23;;;2.92;;
36597;SDS011;22607;49.550;11.940;2024-02-21T08:41:36;9.82;;;2.70;;
36597;SDS011;22607;49.550;11.940;2024-02-21T08:44:22;13.60;;;4.07;;
36597;SDS011;22607;49.550;11.940;2024-02-21T08:46:55;10.50;;;2.60;;
36597;SDS011;22607;49.550;11.940;2024-02-21T08:49:23;11.38;;;3.00;;
36597;SDS011;22607;49.550;11.940;2024-02-21T08:52:03;13.63;;;3.38;;
36597;SDS011;22607;49.550;11.940;2024-02-21T08:54:33;10.70;;;2.63;;
36597;SDS011;22607;49.550;11.940;2024-02-21T08:57:02;11.40;;;2.70;;
36597;SDS011;22607;49.550;11.940;2024-02-21T08:59:32;12.05;;;2.55;;
36597;SDS011;22607;49.550;11.940;2024-02-21T09:01:59;9.23;;;2.30;;
36597;SDS011;22607;49.550;11.940;2024-02-21T09:04:30;11.68;;;2.65;;
36597;SDS011;22607;49.550;11.940;2024-02-21T09:06:58;10.00;;;2.83;;
36597;SDS011;22607;49.550;11.940;2024-02-21T09:09:25;12.55;;;2.63;;
36597;SDS011;22607;49.550;11.940;2024-02-21T09:11:55;10.48;;;2.45;;
36597;SDS011;22607;49.550;11.940;2024-02-21T09:14:24;13.95;;;2.85;;
36597;SDS011;22607;49.550;11.940;2024-02-21T09:16:50;9.50;;;2.17;;
36597;SDS011;22607;49.550;11.940;2024-02-21T09:19:18;10.40;;;3.13;;
36597;SDS011;22607;49.550;11.940;2024-02-21T09:21:46;11.00;;;2.47;;
36597;SDS011;22607;49.550;11.940;2024-02-21T09:24:12;12.15;;;2.20;;
36597;SDS011;22607;49.550;11.940;2024-02-21T09:26:40;10.60;;;2.30;;
36597;SDS011;22607;49.550;11.940;2024-02-21T09:29:07;10.43;;;2.53;;
36597;SDS011;22607;49.550;11.940;2024-02-21T09:31:35;9.90;;;2.00;;
36597;SDS011;22607;49.550;11.940;2024-02-21T09:34:07;9.63;;;2.03;;
36597;SDS011;22607;49.550;11.940;2024-02-21T09:36:38;10.43;;;2.07;;
36597;SDS011;22607;49.550;11.940;2024-02-21T09:39:06;9.45;;;2.08;;
36597;SDS011;22607;49.550;11.940;2024-02-21T09:41:33;10.60;;;2.13;;
36597;SDS011;22607;49.550;11.940;2024-02-21T09:44:06;12.25;;;2.25;;
36597;SDS011;22607;49.550;11.940;2024-02-21T09:49:21;9.27;;;2.22;;
36597;SDS011;22607;49.550;11.940;2024-02-21T09:51:51;17.85;;;3.00;;
36597;SDS011;22607;49.550;11.940;2024-02-21T09:54:20;11.13;;;2.40;;
36597;SDS011;22607;49.550;11.940;2024-02-21T09:56:48;8.85;;;1.75;;
36597;SDS011;22607;49.550;11.940;2024-02-21T09:59:16;9.30;;;1.92;;
36597;SDS011;22607;49.550;11.940;2024-02-21T10:01:44;8.45;;;1.75;;
36597;SDS011;22607;49.550;11.940;2024-02-21T10:04:13;9.35;;;1.70;;
36597;SDS011;22607;49.550;11.940;2024-02-21T10:06:41;7.82;;;1.60;;
36597;SDS011;22607;49.550;11.940;2024-02-21T10:09:20;6.95;;;1.65;;
36597;SDS011;22607;49.550;11.940;2024-02-21T10:11:50;9.57;;;2.30;;
36597;SDS011;22607;49.550;11.940;2024-02-21T10:14:20;9.65;;;1.80;;
36597;SDS011;22607;49.550;11.940;2024-02-21T10:16:47;9.88;;;1.95;;
36597;SDS011;22607;49.550;11.940;2024-02-21T10:19:26;9.20;;;1.50;;
36597;SDS011;22607;49.550;11.940;2024-02-21T10:22:02;9.57;;;1.70;;
36597;SDS011;22607;49.550;11.940;2024-02-21T10:24:38;8.80;;;1.80;;
36597;SDS011;22607;49.550;11.940;2024-02-21T10:27:10;8.90;;;2.03;;
36597;SDS011;22607;49.550;11.940;2024-02-21T10:29:40;9.87;;;2.27;;
36597;SDS011;22607;49.550;11.940;2024-02-21T10:32:12;9.23;;;1.67;;
36597;SDS011;22607;49.550;11.940;2024-02-21T10:34:43;7.88;;;1.60;;
36597;SDS011;22607;49.550;11.940;2024-02-21T10:37:12;8.95;;;1.60;;
36597;SDS011;22607;49.550;11.940;2024-02-21T10:39:41;6.80;;;1.67;;
36597;SDS011;22607;49.550;11.940;2024-02-21T10:42:10;10.60;;;2.13;;
36597;SDS011;22607;49.550;11.940;2024-02-21T10:44:39;8.65;;;1.80;;
36597;SDS011;22607;49.550;11.940;2024-02-21T10:47:08;6.68;;;1.25;;
36597;SDS011;22607;49.550;11.940;2024-02-21T10:49:40;9.52;;;2.13;;
36597;SDS011;22607;49.550;11.940;2024-02-21T10:52:24;8.65;;;1.55;;
36597;SDS011;22607;49.550;11.940;2024-02-21T10:57:37;9.18;;;1.70;;
36597;SDS011;22607;49.550;11.940;2024-02-21T11:03:18;6.70;;;1.52;;
36597;SDS011;22607;49.550;11.940;2024-02-21T11:05:54;5.88;;;1.30;;
36597;SDS011;22607;49.550;11.940;2024-02-21T11:08:27;10.25;;;1.52;;
36597;SDS011;22607;49.550;11.940;2024-02-21T11:10:58;7.10;;;1.40;;
36597;SDS011;22607;49.550;11.940;2024-02-21T11:13:30;8.18;;;1.30;;
36597;SDS011;22607;49.550;11.940;2024-02-21T11:16:07;9.40;;;1.73;;
36597;SDS011;22607;49.550;11.940;2024-02-21T11:18:41;7.65;;;1.45;;
36597;SDS011;22607;49.550;11.940;2024-02-21T11:21:09;8.18;;;1.85;;
36597;SDS011;22607;49.550;11.940;2024-02-21T11:23:36;7.55;;;1.58;;
36597;SDS011;22607;49.550;11.940;2024-02-21T11:26:07;8.57;;;1.80;;
36597;SDS011;22607;49.550;11.940;2024-02-21T11:31:44;7.05;;;1.70;;
36597;SDS011;22607;49.550;11.940;2024-02-21T11:34:21;7.85;;;1.50;;
36597;SDS011;22607;49.550;11.940;2024-02-21T11:36:54;7.28;;;1.80;;
36597;SDS011;22607;49.550;11.940;2024-02-21T11:39:26;8.48;;;2.00;;
36597;SDS011;22607;49.550;11.940;2024-02-21T11:42:02;15.13;;;3.22;;
36597;SDS011;22607;49.550;11.940;2024-02-21T11:44:40;7.22;;;1.50;;
36597;SDS011;22607;49.550;11.940;2024-02-21T11:47:13;7.63;;;1.58;;
36597;SDS011;22607;49.550;11.940;2024-02-21T11:49:47;7.88;;;1.77;;
36597;SDS011;22607;49.550;11.940;2024-02-21T11:52:23;7.55;;;1.60;;
36597;SDS011;22607;49.550;11.940;2024-02-21T11:54:53;7.70;;;1.50;;
36597;SDS011;22607;49.550;11.940;2024-02-21T11:57:24;9.50;;;1.85;;
36597;SDS011;22607;49.550;11.940;2024-02-21T11:59:51;11.05;;;1.98;;
36597;SDS011;22607;49.550;11.940;2024-02-21T12:02:27;11.02;;;2.00;;
36597;SDS011;22607;49.550;11.940;2024-02-21T12:04:56;8.35;;;1.75;;
36597;SDS011;22607;49.550;11.940;2024-02-21T12:07:24;7.43;;;1.50;;
36597;SDS011;22607;49.550;11.940;2024-02-21T12:09:52;9.88;;;1.60;;
36597;SDS011;22607;49.550;11.940;2024-02-21T12:12:22;7.32;;;1.55;;
36597;SDS011;22607;49.550;11.940;2024-02-21T12:14:57;7.57;;;1.58;;
36597;SDS011;22607;49.550;11.940;2024-02-21T12:17:27;7.90;;;1.52;;
36597;SDS011;22607;49.550;11.940;2024-02-21T12:19:59;6.38;;;1.77;;
36597;SDS011;22607;49.550;11.940;2024-02-21T12:22:32;9.15;;;1.50;;
36597;SDS011;22607;49.550;11.940;2024-02-21T12:25:02;7.88;;;1.67;;
36597;SDS011;22607;49.550;11.940;2024-02-21T12:27:33;10.75;;;1.60;;
36597;SDS011;22607;49.550;11.940;2024-02-21T12:29:59;9.35;;;1.70;;
36597;SDS011;22607;49.550;11.940;2024-02-21T12:32:32;5.75;;;1.50;;
36597;SDS011;22607;49.550;11.940;2024-02-21T12:34:59;6.82;;;1.33;;
36597;SDS011;22607;49.550;11.940;2024-02-21T12:37:26;8.05;;;1.65;;
36597;SDS011;22607;49.550;11.940;2024-02-21T12:39:54;5.72;;;1.33;;
36597;SDS011;22607;49.550;11.940;2024-02-21T12:42:25;7.28;;;1.52;;
36597;SDS011;22607;49.550;11.940;2024-02-21T12:44:56;6.55;;;1.50;;
36597;SDS011;22607;49.550;11.940;2024-02-21T12:47:26;8.65;;;1.80;;
36597;SDS011;22607;49.550;11.940;2024-02-21T12:49:57;8.18;;;1.77;;
36597;SDS011;22607;49.550;11.940;2024-02-21T12:52:26;6.45;;;1.83;;
36597;SDS011;22607;49.550;11.940;2024-02-21T12:54:56;8.93;;;1.63;;
36597;SDS011;22607;49.550;11.940;2024-02-21T12:57:30;6.18;;;1.60;;
36597;SDS011;22607;49.550;11.940;2024-02-21T12:59:57;9.27;;;1.65;;
36597;SDS011;22607;49.550;11.940;2024-02-21T13:02:25;7.10;;;1.75;;
36597;SDS011;22607;49.550;11.940;2024-02-21T13:04:54;7.97;;;1.88;;
36597;SDS011;22607;49.550;11.940;2024-02-21T13:07:24;7.70;;;1.50;;
36597;SDS011;22607;49.550;11.940;2024-02-21T13:09:53;7.60;;;1.60;;
36597;SDS011;22607;49.550;11.940;2024-02-21T13:12:23;8.85;;;1.70;;
36597;SDS011;22607;49.550;11.940;2024-02-21T13:14:49;5.75;;;1.33;;
36597;SDS011;22607;49.550;11.940;2024-02-21T13:17:19;6.78;;;1.38;;
36597;SDS011;22607;49.550;11.940;2024-02-21T13:19:46;6.38;;;1.48;;
36597;SDS011;22607;49.550;11.940;2024-02-21T13:22:16;7.97;;;1.75;;
36597;SDS011;22607;49.550;11.940;2024-02-21T13:24:46;10.00;;;1.55;;
36597;SDS011;22607;49.550;11.940;2024-02-21T13:27:15;6.35;;;1.40;;
36597;SDS011;22607;49.550;11.940;2024-02-21T13:29:42;6.25;;;1.20;;
36597;SDS011;22607;49.550;11.940;2024-02-21T13:32:12;6.97;;;1.15;;
36597;SDS011;22607;49.550;11.940;2024-02-21T13:34:45;8.30;;;1.40;;
36597;SDS011;22607;49.550;11.940;2024-02-21T13:37:12;5.72;;;1.20;;
36597;SDS011;22607;49.550;11.940;2024-02-21T13:39:47;5.15;;;1.40;;
36597;SDS011;22607;49.550;11.940;2024-02-21T13:42:17;5.88;;;1.20;;
36597;SDS011;22607;49.550;11.940;2024-02-21T13:44:49;5.70;;;1.17;;
36597;SDS011;22607;49.550;11.940;2024-02-21T13:47:17;6.93;;;1.40;;
36597;SDS011;22607;49.550;11.940;2024-02-21T13:49:44;7.22;;;1.33;;
36597;SDS011;22607;49.550;11.940;2024-02-21T13:52:21;6.53;;;1.38;;
36597;SDS011;22607;49.550;11.940;2024-02-21T13:54:48;8.15;;;1.45;;
36597;SDS011;22607;49.550;11.940;2024-02-21T13:57:16;6.07;;;1.00;;
36597;SDS011;22607;49.550;11.940;2024-02-21T13:59:45;7.18;;;1.33;;
36597;SDS011;22607;49.550;11.940;2024-02-21T14:02:14;7.60;;;1.48;;
36597;SDS011;22607;49.550;11.940;2024-02-21T14:04:41;5.53;;;1.30;;
36597;SDS011;22607;49.550;11.940;2024-02-21T14:07:10;6.18;;;1.25;;
36597;SDS011;22607;49.550;11.940;2024-02-21T14:09:39;6.63;;;1.10;;
36597;SDS011;22607;49.550;11.940;2024-02-21T14:12:06;5.65;;;1.20;;
36597;SDS011;22607;49.550;11.940;2024-02-21T14:14:35;6.18;;;1.08;;
36597;SDS011;22607;49.550;11.940;2024-02-21T14:17:06;3.80;;;0.93;;
36597;SDS011;22607;49.550;11.940;2024-02-21T14:19:38;6.55;;;1.10;;
36597;SDS011;22607;49.550;11.940;2024-02-21T14:22:08;6.13;;;1.20;;
36597;SDS011;22607;49.550;11.940;2024-02-21T14:24:37;7.10;;;1.20;;
36597;SDS011;22607;49.550;11.940;2024-02-21T14:27:05;5.65;;;1.20;;
36597;SDS011;22607;49.550;11.940;2024-02-21T14:29:32;5.65;;;1.05;;
36597;SDS011;22607;49.550;11.940;2024-02-21T14:32:01;5.70;;;1.10;;
36597;SDS011;22607;49.550;11.940;2024-02-21T14:34:29;6.80;;;1.00;;
36597;SDS011;22607;49.550;11.940;2024-02-21T14:37:00;4.97;;;1.10;;
36597;SDS011;22607;49.550;11.940;2024-02-21T14:39:30;6.90;;;1.00;;
36597;SDS011;22607;49.550;11.940;2024-02-21T14:42:05;5.75;;;1.20;;
36597;SDS011;22607;49.550;11.940;2024-02-21T14:44:35;4.85;;;1.10;;
36597;SDS011;22607;49.550;11.940;2024-02-21T14:47:05;5.45;;;0.93;;
36597;SDS011;22607;49.550;11.940;2024-02-21T14:49:33;5.20;;;1.30;;
36597;SDS011;22607;49.550;11.940;2024-02-21T14:52:00;4.57;;;1.10;;
36597;SDS011;22607;49.550;11.940;2024-02-21T14:54:31;4.35;;;1.10;;